sensor_id;sensor_type;location;lat;lon;timestamp;temperature;humidity
24458;DHT22;12629;50.860;5.714;2022-12-29T00:02:08;11.20;99.90
24458;DHT22;12629;50.860;5.714;2022-12-29T00:04:35;11.20;99.90
24458;DHT22;12629;50.860;5.714;2022-12-29T00:07:03;11.30;99.90
24458;DHT22;12629;50.860;5.714;2022-12-29T00:09:31;11.30;99.90
24458;DHT22;12629;50.860;5.714;2022-12-29T00:12:00;11.30;99.90
24458;DHT22;12629;50.860;5.714;2022-12-29T00:14:28;11.40;99.90
24458;DHT22;12629;50.860;5.714;2022-12-29T00:17:13;11.50;99.90
24458;DHT22;12629;50.860;5.714;2022-12-29T00:19:40;11.50;99.90
24458;DHT22;12629;50.860;5.714;2022-12-29T00:22:25;11.40;99.90
24458;DHT22;12629;50.860;5.714;2022-12-29T00:25:11;11.40;99.90
24458;DHT22;12629;50.860;5.714;2022-12-29T00:28:11;11.40;99.90
24458;DHT22;12629;50.860;5.714;2022-12-29T00:30:59;11.40;99.90
24458;DHT22;12629;50.860;5.714;2022-12-29T00:33:43;11.50;99.90
24458;DHT22;12629;50.860;5.714;2022-12-29T00:36:31;11.50;99.90
24458;DHT22;12629;50.860;5.714;2022-12-29T00:39:02;11.50;99.90
24458;DHT22;12629;50.860;5.714;2022-12-29T00:41:47;11.50;99.90
24458;DHT22;12629;50.860;5.714;2022-12-29T00:44:33;11.60;99.90
24458;DHT22;12629;50.860;5.714;2022-12-29T00:47:01;11.50;99.90
24458;DHT22;12629;50.860;5.714;2022-12-29T00:49:30;11.50;99.90
24458;DHT22;12629;50.860;5.714;2022-12-29T00:51:57;11.50;99.90
24458;DHT22;12629;50.860;5.714;2022-12-29T00:54:26;11.50;99.90
24458;DHT22;12629;50.860;5.714;2022-12-29T00:56:53;11.50;99.90
24458;DHT22;12629;50.860;5.714;2022-12-29T00:59:21;11.50;99.90
24458;DHT22;12629;50.860;5.714;2022-12-29T01:01:52;11.50;99.90
24458;DHT22;12629;50.860;5.714;2022-12-29T01:04:20;11.50;99.90
24458;DHT22;12629;50.860;5.714;2022-12-29T01:06:47;11.60;99.90
24458;DHT22;12629;50.860;5.714;2022-12-29T01:09:15;11.60;99.90
24458;DHT22;12629;50.860;5.714;2022-12-29T01:12:11;11.60;99.90
24458;DHT22;12629;50.860;5.714;2022-12-29T01:14:39;11.60;99.90
24458;DHT22;12629;50.860;5.714;2022-12-29T01:17:08;11.60;99.90
24458;DHT22;12629;50.860;5.714;2022-12-29T01:19:35;11.60;99.90
24458;DHT22;12629;50.860;5.714;2022-12-29T01:22:02;11.50;99.90
24458;DHT22;12629;50.860;5.714;2022-12-29T01:24:30;11.50;99.90
24458;DHT22;12629;50.860;5.714;2022-12-29T01:26:57;11.60;99.90
24458;DHT22;12629;50.860;5.714;2022-12-29T01:29:24;11.70;99.90
24458;DHT22;12629;50.860;5.714;2022-12-29T01:31:51;11.70;99.90
24458;DHT22;12629;50.860;5.714;2022-12-29T01:34:20;11.70;99.90
24458;DHT22;12629;50.860;5.714;2022-12-29T01:36:47;11.60;99.90
24458;DHT22;12629;50.860;5.714;2022-12-29T01:39:14;11.60;99.90
24458;DHT22;12629;50.860;5.714;2022-12-29T01:41:42;11.70;99.90
24458;DHT22;12629;50.860;5.714;2022-12-29T01:44:47;11.70;99.90
24458;DHT22;12629;50.860;5.714;2022-12-29T01:47:19;11.70;99.90
24458;DHT22;12629;50.860;5.714;2022-12-29T01:49:49;11.70;99.90
24458;DHT22;12629;50.860;5.714;2022-12-29T01:52:17;11.60;99.90
24458;DHT22;12629;50.860;5.714;2022-12-29T01:54:48;11.70;99.90
24458;DHT22;12629;50.860;5.714;2022-12-29T01:57:20;11.70;99.90
24458;DHT22;12629;50.860;5.714;2022-12-29T01:59:52;11.70;99.90
24458;DHT22;12629;50.860;5.714;2022-12-29T02:02:21;11.70;99.90
24458;DHT22;12629;50.860;5.714;2022-12-29T02:04:50;11.70;99.90
24458;DHT22;12629;50.860;5.714;2022-12-29T02:07:20;11.60;99.90
24458;DHT22;12629;50.860;5.714;2022-12-29T02:09:49;11.80;99.90
24458;DHT22;12629;50.860;5.714;2022-12-29T02:12:18;11.70;99.90
24458;DHT22;12629;50.860;5.714;2022-12-29T02:14:47;11.80;99.90
24458;DHT22;12629;50.860;5.714;2022-12-29T02:17:22;11.80;99.90
24458;DHT22;12629;50.860;5.714;2022-12-29T02:20:30;11.60;99.90
24458;DHT22;12629;50.860;5.714;2022-12-29T02:23:16;11.50;99.90
24458;DHT22;12629;50.860;5.714;2022-12-29T02:26:13;11.30;99.90
24458;DHT22;12629;50.860;5.714;2022-12-29T02:29:30;11.40;99.90
24458;DHT22;12629;50.860;5.714;2022-12-29T02:32:06;11.40;99.90
24458;DHT22;12629;50.860;5.714;2022-12-29T02:34:44;11.40;99.90
24458;DHT22;12629;50.860;5.714;2022-12-29T02:37:19;11.40;99.90
24458;DHT22;12629;50.860;5.714;2022-12-29T02:39:52;11.40;99.90
24458;DHT22;12629;50.860;5.714;2022-12-29T02:42:22;11.30;99.90
24458;DHT22;12629;50.860;5.714;2022-12-29T02:44:55;11.30;99.90
24458;DHT22;12629;50.860;5.714;2022-12-29T02:47:31;11.20;99.90
24458;DHT22;12629;50.860;5.714;2022-12-29T02:50:05;11.20;99.90
24458;DHT22;12629;50.860;5.714;2022-12-29T02:52:34;11.30;99.90
24458;DHT22;12629;50.860;5.714;2022-12-29T02:55:03;11.30;99.90
24458;DHT22;12629;50.860;5.714;2022-12-29T02:57:32;11.30;99.90
24458;DHT22;12629;50.860;5.714;2022-12-29T03:00:03;11.30;99.90
24458;DHT22;12629;50.860;5.714;2022-12-29T03:05:42;11.40;99.90
24458;DHT22;12629;50.860;5.714;2022-12-29T03:08:18;11.50;99.90
24458;DHT22;12629;50.860;5.714;2022-12-29T03:10:54;11.60;99.90
24458;DHT22;12629;50.860;5.714;2022-12-29T03:13:26;11.60;99.90
24458;DHT22;12629;50.860;5.714;2022-12-29T03:16:18;11.70;99.90
24458;DHT22;12629;50.860;5.714;2022-12-29T03:18:55;11.70;99.90
24458;DHT22;12629;50.860;5.714;2022-12-29T03:21:27;11.70;99.90
24458;DHT22;12629;50.860;5.714;2022-12-29T03:24:10;11.60;99.90
24458;DHT22;12629;50.860;5.714;2022-12-29T03:26:38;11.70;99.90
24458;DHT22;12629;50.860;5.714;2022-12-29T03:29:08;11.60;99.90
24458;DHT22;12629;50.860;5.714;2022-12-29T03:31:36;11.40;99.90
24458;DHT22;12629;50.860;5.714;2022-12-29T03:34:06;11.50;99.90
24458;DHT22;12629;50.860;5.714;2022-12-29T03:36:42;11.50;99.90
24458;DHT22;12629;50.860;5.714;2022-12-29T03:39:11;11.50;99.90
24458;DHT22;12629;50.860;5.714;2022-12-29T03:41:41;11.60;99.90
24458;DHT22;12629;50.860;5.714;2022-12-29T03:44:10;11.70;99.90
24458;DHT22;12629;50.860;5.714;2022-12-29T03:46:38;11.60;99.90
24458;DHT22;12629;50.860;5.714;2022-12-29T03:49:07;11.70;99.90
24458;DHT22;12629;50.860;5.714;2022-12-29T03:51:37;11.70;99.90
24458;DHT22;12629;50.860;5.714;2022-12-29T03:54:04;11.70;99.90
24458;DHT22;12629;50.860;5.714;2022-12-29T03:56:32;11.80;99.90
24458;DHT22;12629;50.860;5.714;2022-12-29T03:58:59;11.90;99.90
24458;DHT22;12629;50.860;5.714;2022-12-29T04:01:26;11.90;99.90
24458;DHT22;12629;50.860;5.714;2022-12-29T04:03:53;11.80;99.90
24458;DHT22;12629;50.860;5.714;2022-12-29T04:06:22;11.80;99.90
24458;DHT22;12629;50.860;5.714;2022-12-29T04:08:50;11.90;99.90
24458;DHT22;12629;50.860;5.714;2022-12-29T04:11:17;12.00;99.90
24458;DHT22;12629;50.860;5.714;2022-12-29T04:13:45;12.10;99.90
24458;DHT22;12629;50.860;5.714;2022-12-29T04:16:12;12.00;99.90
24458;DHT22;12629;50.860;5.714;2022-12-29T04:18:39;12.00;99.90
24458;DHT22;12629;50.860;5.714;2022-12-29T04:21:07;11.90;99.90
24458;DHT22;12629;50.860;5.714;2022-12-29T04:23:37;11.80;99.90
24458;DHT22;12629;50.860;5.714;2022-12-29T04:26:06;11.90;99.90
24458;DHT22;12629;50.860;5.714;2022-12-29T04:28:35;11.90;99.90
24458;DHT22;12629;50.860;5.714;2022-12-29T04:31:02;11.90;99.90
24458;DHT22;12629;50.860;5.714;2022-12-29T04:33:30;11.90;99.90
24458;DHT22;12629;50.860;5.714;2022-12-29T04:35:57;11.90;99.90
24458;DHT22;12629;50.860;5.714;2022-12-29T04:38:24;11.90;99.90
24458;DHT22;12629;50.860;5.714;2022-12-29T04:40:53;11.90;99.90
24458;DHT22;12629;50.860;5.714;2022-12-29T04:43:20;11.90;99.90
24458;DHT22;12629;50.860;5.714;2022-12-29T04:45:48;11.90;99.90
24458;DHT22;12629;50.860;5.714;2022-12-29T04:48:15;11.90;99.90
24458;DHT22;12629;50.860;5.714;2022-12-29T04:50:43;11.80;99.90
24458;DHT22;12629;50.860;5.714;2022-12-29T04:53:10;11.80;99.90
24458;DHT22;12629;50.860;5.714;2022-12-29T04:55:37;11.80;99.90
24458;DHT22;12629;50.860;5.714;2022-12-29T04:58:06;11.70;99.90
24458;DHT22;12629;50.860;5.714;2022-12-29T05:00:33;11.70;99.90
24458;DHT22;12629;50.860;5.714;2022-12-29T05:03:01;11.70;99.90
24458;DHT22;12629;50.860;5.714;2022-12-29T05:05:28;11.70;99.90
24458;DHT22;12629;50.860;5.714;2022-12-29T05:07:55;11.60;99.90
24458;DHT22;12629;50.860;5.714;2022-12-29T05:10:22;11.60;99.90
24458;DHT22;12629;50.860;5.714;2022-12-29T05:12:49;11.60;99.90
24458;DHT22;12629;50.860;5.714;2022-12-29T05:15:18;11.60;99.90
24458;DHT22;12629;50.860;5.714;2022-12-29T05:17:45;11.50;99.90
24458;DHT22;12629;50.860;5.714;2022-12-29T05:20:13;11.60;99.90
24458;DHT22;12629;50.860;5.714;2022-12-29T05:22:40;11.60;99.90
24458;DHT22;12629;50.860;5.714;2022-12-29T05:25:08;11.60;99.90
24458;DHT22;12629;50.860;5.714;2022-12-29T05:27:35;11.60;99.90
24458;DHT22;12629;50.860;5.714;2022-12-29T05:30:03;11.50;99.90
24458;DHT22;12629;50.860;5.714;2022-12-29T05:32:32;11.50;99.90
24458;DHT22;12629;50.860;5.714;2022-12-29T05:34:59;11.40;99.90
24458;DHT22;12629;50.860;5.714;2022-12-29T05:37:26;11.40;99.90
24458;DHT22;12629;50.860;5.714;2022-12-29T05:39:54;11.40;99.90
24458;DHT22;12629;50.860;5.714;2022-12-29T05:42:21;11.40;99.90
24458;DHT22;12629;50.860;5.714;2022-12-29T05:44:48;11.40;99.90
24458;DHT22;12629;50.860;5.714;2022-12-29T05:47:19;11.30;99.90
24458;DHT22;12629;50.860;5.714;2022-12-29T05:49:48;11.20;99.90
24458;DHT22;12629;50.860;5.714;2022-12-29T05:52:15;11.10;99.90
24458;DHT22;12629;50.860;5.714;2022-12-29T05:54:42;11.10;99.90
24458;DHT22;12629;50.860;5.714;2022-12-29T05:57:09;11.20;99.90
24458;DHT22;12629;50.860;5.714;2022-12-29T05:59:36;11.20;99.90
24458;DHT22;12629;50.860;5.714;2022-12-29T06:02:03;11.20;99.90
24458;DHT22;12629;50.860;5.714;2022-12-29T06:04:31;11.20;99.90
24458;DHT22;12629;50.860;5.714;2022-12-29T06:06:59;11.30;99.90
24458;DHT22;12629;50.860;5.714;2022-12-29T06:09:26;11.30;99.90
24458;DHT22;12629;50.860;5.714;2022-12-29T06:11:54;11.30;99.90
24458;DHT22;12629;50.860;5.714;2022-12-29T06:14:21;11.30;99.90
24458;DHT22;12629;50.860;5.714;2022-12-29T06:16:48;11.30;99.90
24458;DHT22;12629;50.860;5.714;2022-12-29T06:19:15;11.20;99.90
24458;DHT22;12629;50.860;5.714;2022-12-29T06:21:42;11.10;99.90
24458;DHT22;12629;50.860;5.714;2022-12-29T06:24:11;11.20;99.90
24458;DHT22;12629;50.860;5.714;2022-12-29T06:26:38;11.20;99.90
24458;DHT22;12629;50.860;5.714;2022-12-29T06:29:06;11.20;99.90
24458;DHT22;12629;50.860;5.714;2022-12-29T06:31:34;11.10;99.90
24458;DHT22;12629;50.860;5.714;2022-12-29T06:34:01;11.20;99.90
24458;DHT22;12629;50.860;5.714;2022-12-29T06:36:29;11.20;99.90
24458;DHT22;12629;50.860;5.714;2022-12-29T06:38:56;11.10;99.90
24458;DHT22;12629;50.860;5.714;2022-12-29T06:41:25;11.10;99.90
24458;DHT22;12629;50.860;5.714;2022-12-29T06:43:52;11.10;99.90
24458;DHT22;12629;50.860;5.714;2022-12-29T06:46:20;11.00;99.90
24458;DHT22;12629;50.860;5.714;2022-12-29T06:48:47;11.00;99.90
24458;DHT22;12629;50.860;5.714;2022-12-29T06:51:15;11.00;99.90
24458;DHT22;12629;50.860;5.714;2022-12-29T06:53:42;11.00;99.90
24458;DHT22;12629;50.860;5.714;2022-12-29T06:56:09;11.00;99.90
24458;DHT22;12629;50.860;5.714;2022-12-29T06:58:38;11.00;99.90
24458;DHT22;12629;50.860;5.714;2022-12-29T07:01:06;11.00;99.90
24458;DHT22;12629;50.860;5.714;2022-12-29T07:03:33;10.90;99.90
24458;DHT22;12629;50.860;5.714;2022-12-29T07:06:00;10.80;99.90
24458;DHT22;12629;50.860;5.714;2022-12-29T07:08:28;10.70;99.90
24458;DHT22;12629;50.860;5.714;2022-12-29T07:10:55;10.70;99.90
24458;DHT22;12629;50.860;5.714;2022-12-29T07:13:23;10.80;99.90
24458;DHT22;12629;50.860;5.714;2022-12-29T07:15:51;10.70;99.90
24458;DHT22;12629;50.860;5.714;2022-12-29T07:18:19;10.70;99.90
24458;DHT22;12629;50.860;5.714;2022-12-29T07:20:46;10.70;99.90
24458;DHT22;12629;50.860;5.714;2022-12-29T07:23:13;10.80;99.90
24458;DHT22;12629;50.860;5.714;2022-12-29T07:25:41;10.80;99.90
24458;DHT22;12629;50.860;5.714;2022-12-29T07:28:08;11.00;99.90
24458;DHT22;12629;50.860;5.714;2022-12-29T07:30:37;11.00;99.90
24458;DHT22;12629;50.860;5.714;2022-12-29T07:33:06;11.00;99.90
24458;DHT22;12629;50.860;5.714;2022-12-29T07:35:34;11.00;99.90
24458;DHT22;12629;50.860;5.714;2022-12-29T07:38:01;11.00;99.90
24458;DHT22;12629;50.860;5.714;2022-12-29T07:40:28;10.70;99.90
24458;DHT22;12629;50.860;5.714;2022-12-29T07:42:56;10.50;99.90
24458;DHT22;12629;50.860;5.714;2022-12-29T07:45:23;10.50;99.90
24458;DHT22;12629;50.860;5.714;2022-12-29T07:47:50;10.50;99.90
24458;DHT22;12629;50.860;5.714;2022-12-29T07:50:19;10.40;99.90
24458;DHT22;12629;50.860;5.714;2022-12-29T07:52:47;10.40;99.90
24458;DHT22;12629;50.860;5.714;2022-12-29T07:55:14;10.50;99.90
24458;DHT22;12629;50.860;5.714;2022-12-29T07:57:42;10.60;99.90
24458;DHT22;12629;50.860;5.714;2022-12-29T08:00:10;10.60;99.90
24458;DHT22;12629;50.860;5.714;2022-12-29T08:02:37;10.70;99.90
24458;DHT22;12629;50.860;5.714;2022-12-29T08:05:06;10.80;99.90
24458;DHT22;12629;50.860;5.714;2022-12-29T08:07:34;10.70;99.90
24458;DHT22;12629;50.860;5.714;2022-12-29T08:10:02;10.80;99.90
24458;DHT22;12629;50.860;5.714;2022-12-29T08:12:30;10.80;99.90
24458;DHT22;12629;50.860;5.714;2022-12-29T08:14:57;10.70;99.90
24458;DHT22;12629;50.860;5.714;2022-12-29T08:17:24;10.60;99.90
24458;DHT22;12629;50.860;5.714;2022-12-29T08:19:52;10.60;99.90
24458;DHT22;12629;50.860;5.714;2022-12-29T08:22:19;10.70;99.90
24458;DHT22;12629;50.860;5.714;2022-12-29T08:24:48;10.70;99.90
24458;DHT22;12629;50.860;5.714;2022-12-29T08:27:15;10.70;99.90
24458;DHT22;12629;50.860;5.714;2022-12-29T08:29:42;10.70;99.90
24458;DHT22;12629;50.860;5.714;2022-12-29T08:32:10;10.70;99.90
24458;DHT22;12629;50.860;5.714;2022-12-29T08:34:37;10.70;99.90
24458;DHT22;12629;50.860;5.714;2022-12-29T08:37:05;10.70;99.90
24458;DHT22;12629;50.860;5.714;2022-12-29T08:39:32;10.80;99.90
24458;DHT22;12629;50.860;5.714;2022-12-29T08:42:01;10.90;99.90
24458;DHT22;12629;50.860;5.714;2022-12-29T08:44:29;11.20;99.90
24458;DHT22;12629;50.860;5.714;2022-12-29T08:46:56;11.30;99.90
24458;DHT22;12629;50.860;5.714;2022-12-29T08:49:23;11.30;99.90
24458;DHT22;12629;50.860;5.714;2022-12-29T08:51:51;11.20;99.90
24458;DHT22;12629;50.860;5.714;2022-12-29T08:54:18;11.30;99.90
24458;DHT22;12629;50.860;5.714;2022-12-29T08:56:45;11.50;99.90
24458;DHT22;12629;50.860;5.714;2022-12-29T08:59:14;11.50;99.90
24458;DHT22;12629;50.860;5.714;2022-12-29T09:01:42;11.70;99.90
24458;DHT22;12629;50.860;5.714;2022-12-29T09:04:09;11.60;99.90
24458;DHT22;12629;50.860;5.714;2022-12-29T09:06:36;11.70;99.90
24458;DHT22;12629;50.860;5.714;2022-12-29T09:09:04;12.00;99.90
24458;DHT22;12629;50.860;5.714;2022-12-29T09:11:31;11.90;99.90
24458;DHT22;12629;50.860;5.714;2022-12-29T09:13:58;11.60;99.90
24458;DHT22;12629;50.860;5.714;2022-12-29T09:16:27;11.60;99.90
24458;DHT22;12629;50.860;5.714;2022-12-29T09:18:54;11.30;99.90
24458;DHT22;12629;50.860;5.714;2022-12-29T09:21:22;11.20;99.90
24458;DHT22;12629;50.860;5.714;2022-12-29T09:23:49;11.10;99.90
24458;DHT22;12629;50.860;5.714;2022-12-29T09:26:16;11.00;99.90
24458;DHT22;12629;50.860;5.714;2022-12-29T09:28:44;10.90;99.90
24458;DHT22;12629;50.860;5.714;2022-12-29T09:31:13;11.20;99.90
24458;DHT22;12629;50.860;5.714;2022-12-29T09:33:41;11.30;99.90
24458;DHT22;12629;50.860;5.714;2022-12-29T09:36:09;11.10;99.90
24458;DHT22;12629;50.860;5.714;2022-12-29T09:38:36;11.00;99.90
24458;DHT22;12629;50.860;5.714;2022-12-29T09:41:08;10.90;99.90
24458;DHT22;12629;50.860;5.714;2022-12-29T09:43:55;10.90;99.90
24458;DHT22;12629;50.860;5.714;2022-12-29T09:46:25;10.90;99.90
24458;DHT22;12629;50.860;5.714;2022-12-29T09:49:08;10.80;99.90
24458;DHT22;12629;50.860;5.714;2022-12-29T09:51:40;10.90;99.90
24458;DHT22;12629;50.860;5.714;2022-12-29T09:54:23;11.00;99.90
24458;DHT22;12629;50.860;5.714;2022-12-29T09:56:52;11.10;99.90
24458;DHT22;12629;50.860;5.714;2022-12-29T09:59:22;11.10;99.90
24458;DHT22;12629;50.860;5.714;2022-12-29T10:01:56;11.10;99.90
24458;DHT22;12629;50.860;5.714;2022-12-29T10:04:27;11.20;99.90
24458;DHT22;12629;50.860;5.714;2022-12-29T10:06:59;11.40;99.90
24458;DHT22;12629;50.860;5.714;2022-12-29T10:09:36;11.40;99.90
24458;DHT22;12629;50.860;5.714;2022-12-29T10:12:15;11.30;99.90
24458;DHT22;12629;50.860;5.714;2022-12-29T10:14:57;11.20;99.90
24458;DHT22;12629;50.860;5.714;2022-12-29T10:17:33;11.10;99.90
24458;DHT22;12629;50.860;5.714;2022-12-29T10:20:15;11.00;99.90
24458;DHT22;12629;50.860;5.714;2022-12-29T10:23:01;11.00;99.90
24458;DHT22;12629;50.860;5.714;2022-12-29T10:25:32;11.10;99.90
24458;DHT22;12629;50.860;5.714;2022-12-29T10:28:05;11.20;99.90
24458;DHT22;12629;50.860;5.714;2022-12-29T10:30:34;11.20;99.90
24458;DHT22;12629;50.860;5.714;2022-12-29T10:33:04;11.20;99.90
24458;DHT22;12629;50.860;5.714;2022-12-29T10:35:36;11.20;99.90
24458;DHT22;12629;50.860;5.714;2022-12-29T10:38:13;11.30;99.90
24458;DHT22;12629;50.860;5.714;2022-12-29T10:40:46;11.20;99.90
24458;DHT22;12629;50.860;5.714;2022-12-29T10:43:23;11.20;99.90
24458;DHT22;12629;50.860;5.714;2022-12-29T10:45:52;11.30;99.90
24458;DHT22;12629;50.860;5.714;2022-12-29T10:48:22;11.30;99.90
24458;DHT22;12629;50.860;5.714;2022-12-29T10:50:55;11.30;99.90
24458;DHT22;12629;50.860;5.714;2022-12-29T10:53:25;11.30;99.90
24458;DHT22;12629;50.860;5.714;2022-12-29T10:55:55;11.30;99.90
24458;DHT22;12629;50.860;5.714;2022-12-29T10:58:23;11.30;99.90
24458;DHT22;12629;50.860;5.714;2022-12-29T11:00:53;11.20;99.90
24458;DHT22;12629;50.860;5.714;2022-12-29T11:03:41;11.20;99.90
24458;DHT22;12629;50.860;5.714;2022-12-29T11:06:17;11.20;99.90
24458;DHT22;12629;50.860;5.714;2022-12-29T11:08:52;11.30;99.90
24458;DHT22;12629;50.860;5.714;2022-12-29T11:11:24;11.20;99.90
24458;DHT22;12629;50.860;5.714;2022-12-29T11:13:57;11.20;99.90
24458;DHT22;12629;50.860;5.714;2022-12-29T11:16:30;11.30;99.90
24458;DHT22;12629;50.860;5.714;2022-12-29T11:18:58;11.30;99.90
24458;DHT22;12629;50.860;5.714;2022-12-29T11:21:32;11.40;99.90
24458;DHT22;12629;50.860;5.714;2022-12-29T11:24:01;11.50;99.90
24458;DHT22;12629;50.860;5.714;2022-12-29T11:26:29;11.80;99.90
24458;DHT22;12629;50.860;5.714;2022-12-29T11:29:14;12.00;99.90
24458;DHT22;12629;50.860;5.714;2022-12-29T11:31:45;11.80;99.90
